sensor_id;sensor_type;location;lat;lon;timestamp;temperature;humidity
24436;DHT22;12616;52.470;13.436;2023-03-15T00:00:19;2.40;99.90
24436;DHT22;12616;52.470;13.436;2023-03-15T00:02:46;2.40;99.90
24436;DHT22;12616;52.470;13.436;2023-03-15T00:05:13;2.40;99.90
24436;DHT22;12616;52.470;13.436;2023-03-15T00:07:40;2.40;92.90
24436;DHT22;12616;52.470;13.436;2023-03-15T00:10:07;2.40;69.00
24436;DHT22;12616;52.470;13.436;2023-03-15T00:12:35;2.40;41.20
24436;DHT22;12616;52.470;13.436;2023-03-15T00:15:04;2.40;23.10
24436;DHT22;12616;52.470;13.436;2023-03-15T00:17:30;2.40;97.90
24436;DHT22;12616;52.470;13.436;2023-03-15T00:19:59;2.40;54.80
24436;DHT22;12616;52.470;13.436;2023-03-15T00:22:26;2.40;99.90
24436;DHT22;12616;52.470;13.436;2023-03-15T00:24:52;2.40;99.90
24436;DHT22;12616;52.470;13.436;2023-03-15T00:27:19;2.40;64.00
24436;DHT22;12616;52.470;13.436;2023-03-15T00:29:46;2.40;2.50
24436;DHT22;12616;52.470;13.436;2023-03-15T00:32:14;2.40;26.80
24436;DHT22;12616;52.470;13.436;2023-03-15T00:34:41;2.40;2.00
24436;DHT22;12616;52.470;13.436;2023-03-15T00:37:14;2.40;1.00
24436;DHT22;12616;52.470;13.436;2023-03-15T00:39:41;2.40;57.40
24436;DHT22;12616;52.470;13.436;2023-03-15T00:42:10;2.40;99.90
24436;DHT22;12616;52.470;13.436;2023-03-15T00:44:40;2.30;46.40
24436;DHT22;12616;52.470;13.436;2023-03-15T00:47:07;2.30;74.80
24436;DHT22;12616;52.470;13.436;2023-03-15T00:49:35;2.30;75.30
24436;DHT22;12616;52.470;13.436;2023-03-15T00:52:02;2.40;99.90
24436;DHT22;12616;52.470;13.436;2023-03-15T00:54:30;2.40;61.70
24436;DHT22;12616;52.470;13.436;2023-03-15T00:56:58;2.40;99.90
24436;DHT22;12616;52.470;13.436;2023-03-15T00:59:24;2.50;99.90
24436;DHT22;12616;52.470;13.436;2023-03-15T01:01:53;2.40;99.90
24436;DHT22;12616;52.470;13.436;2023-03-15T01:04:20;2.40;99.90
24436;DHT22;12616;52.470;13.436;2023-03-15T01:06:48;1.80;99.90
24436;DHT22;12616;52.470;13.436;2023-03-15T01:09:15;2.30;99.90
24436;DHT22;12616;52.470;13.436;2023-03-15T01:11:42;2.30;99.90
24436;DHT22;12616;52.470;13.436;2023-03-15T01:14:09;3.10;99.90
24436;DHT22;12616;52.470;13.436;2023-03-15T01:16:36;2.30;99.90
24436;DHT22;12616;52.470;13.436;2023-03-15T01:19:03;2.20;99.90
24436;DHT22;12616;52.470;13.436;2023-03-15T01:21:30;2.50;99.90
24436;DHT22;12616;52.470;13.436;2023-03-15T01:23:58;2.20;99.90
24436;DHT22;12616;52.470;13.436;2023-03-15T01:26:25;2.20;99.90
24436;DHT22;12616;52.470;13.436;2023-03-15T01:28:51;2.10;99.90
24436;DHT22;12616;52.470;13.436;2023-03-15T01:31:22;2.10;99.90
24436;DHT22;12616;52.470;13.436;2023-03-15T01:33:49;2.10;99.90
24436;DHT22;12616;52.470;13.436;2023-03-15T01:36:16;2.10;99.90
24436;DHT22;12616;52.470;13.436;2023-03-15T01:38:43;2.00;99.90
24436;DHT22;12616;52.470;13.436;2023-03-15T01:41:13;2.10;99.90
24436;DHT22;12616;52.470;13.436;2023-03-15T01:43:40;2.10;99.90
24436;DHT22;12616;52.470;13.436;2023-03-15T01:46:21;2.30;99.90
24436;DHT22;12616;52.470;13.436;2023-03-15T01:48:52;2.20;99.90
24436;DHT22;12616;52.470;13.436;2023-03-15T01:51:22;2.10;99.90
24436;DHT22;12616;52.470;13.436;2023-03-15T01:53:52;2.00;99.90
24436;DHT22;12616;52.470;13.436;2023-03-15T01:56:22;2.00;99.90
24436;DHT22;12616;52.470;13.436;2023-03-15T01:58:52;2.00;99.90
24436;DHT22;12616;52.470;13.436;2023-03-15T02:01:19;2.00;99.90
24436;DHT22;12616;52.470;13.436;2023-03-15T02:03:50;2.00;99.90
24436;DHT22;12616;52.470;13.436;2023-03-15T02:06:20;2.00;99.90
24436;DHT22;12616;52.470;13.436;2023-03-15T02:08:50;2.00;99.90
24436;DHT22;12616;52.470;13.436;2023-03-15T02:11:23;1.90;99.90
24436;DHT22;12616;52.470;13.436;2023-03-15T02:13:50;1.90;1.00
24436;DHT22;12616;52.470;13.436;2023-03-15T02:16:18;1.90;99.90
24436;DHT22;12616;52.470;13.436;2023-03-15T02:18:46;2.00;99.90
24436;DHT22;12616;52.470;13.436;2023-03-15T02:21:22;1.80;99.90
24436;DHT22;12616;52.470;13.436;2023-03-15T02:23:59;1.90;99.90
24436;DHT22;12616;52.470;13.436;2023-03-15T02:26:36;1.80;99.90
24436;DHT22;12616;52.470;13.436;2023-03-15T02:29:07;1.70;99.90
24436;DHT22;12616;52.470;13.436;2023-03-15T02:31:35;1.60;99.90
24436;DHT22;12616;52.470;13.436;2023-03-15T02:34:03;1.50;99.90
24436;DHT22;12616;52.470;13.436;2023-03-15T02:36:31;1.60;1.00
24436;DHT22;12616;52.470;13.436;2023-03-15T02:38:59;1.10;1.00
24436;DHT22;12616;52.470;13.436;2023-03-15T02:41:29;1.30;1.00
24436;DHT22;12616;52.470;13.436;2023-03-15T02:44:02;1.30;1.00
24436;DHT22;12616;52.470;13.436;2023-03-15T02:46:31;1.00;1.00
24436;DHT22;12616;52.470;13.436;2023-03-15T02:48:59;1.30;1.00
24436;DHT22;12616;52.470;13.436;2023-03-15T02:51:27;1.40;1.00
24436;DHT22;12616;52.470;13.436;2023-03-15T02:53:55;1.30;1.00
24436;DHT22;12616;52.470;13.436;2023-03-15T02:56:22;1.30;1.00
24436;DHT22;12616;52.470;13.436;2023-03-15T02:58:49;1.30;1.00
24436;DHT22;12616;52.470;13.436;2023-03-15T03:01:16;1.30;1.00
24436;DHT22;12616;52.470;13.436;2023-03-15T03:03:46;1.30;1.00
24436;DHT22;12616;52.470;13.436;2023-03-15T03:06:16;1.20;1.00
24436;DHT22;12616;52.470;13.436;2023-03-15T03:08:44;1.20;1.00
24436;DHT22;12616;52.470;13.436;2023-03-15T03:11:12;1.30;1.00
24436;DHT22;12616;52.470;13.436;2023-03-15T03:13:39;1.40;1.00
24436;DHT22;12616;52.470;13.436;2023-03-15T03:16:06;1.30;1.00
24436;DHT22;12616;52.470;13.436;2023-03-15T03:18:34;1.30;1.00
24436;DHT22;12616;52.470;13.436;2023-03-15T03:21:05;1.40;1.00
24436;DHT22;12616;52.470;13.436;2023-03-15T03:23:33;1.30;1.00
24436;DHT22;12616;52.470;13.436;2023-03-15T03:26:01;1.40;1.00
24436;DHT22;12616;52.470;13.436;2023-03-15T03:28:30;1.30;1.00
24436;DHT22;12616;52.470;13.436;2023-03-15T03:30:57;1.30;1.00
24436;DHT22;12616;52.470;13.436;2023-03-15T03:33:25;1.30;1.00
24436;DHT22;12616;52.470;13.436;2023-03-15T03:35:52;1.30;1.00
24436;DHT22;12616;52.470;13.436;2023-03-15T03:38:20;1.30;1.00
24436;DHT22;12616;52.470;13.436;2023-03-15T03:40:47;1.30;1.00
24436;DHT22;12616;52.470;13.436;2023-03-15T03:43:14;1.30;1.00
24436;DHT22;12616;52.470;13.436;2023-03-15T03:45:41;1.40;1.00
24436;DHT22;12616;52.470;13.436;2023-03-15T03:48:08;1.40;1.00
24436;DHT22;12616;52.470;13.436;2023-03-15T03:50:35;1.40;1.00
24436;DHT22;12616;52.470;13.436;2023-03-15T03:53:01;1.00;1.00
24436;DHT22;12616;52.470;13.436;2023-03-15T03:55:30;1.40;1.00
24436;DHT22;12616;52.470;13.436;2023-03-15T03:57:58;1.30;1.00
24436;DHT22;12616;52.470;13.436;2023-03-15T04:00:25;1.40;1.00
24436;DHT22;12616;52.470;13.436;2023-03-15T04:02:52;1.40;1.00
24436;DHT22;12616;52.470;13.436;2023-03-15T04:05:19;1.30;1.00
24436;DHT22;12616;52.470;13.436;2023-03-15T04:07:46;1.20;1.00
24436;DHT22;12616;52.470;13.436;2023-03-15T04:10:13;1.20;1.00
24436;DHT22;12616;52.470;13.436;2023-03-15T04:12:42;1.30;1.00
24436;DHT22;12616;52.470;13.436;2023-03-15T04:15:09;1.20;1.00
24436;DHT22;12616;52.470;13.436;2023-03-15T04:17:37;1.20;1.00
24436;DHT22;12616;52.470;13.436;2023-03-15T04:20:05;1.20;1.00
24436;DHT22;12616;52.470;13.436;2023-03-15T04:22:35;1.10;1.00
24436;DHT22;12616;52.470;13.436;2023-03-15T04:25:02;1.10;1.00
24436;DHT22;12616;52.470;13.436;2023-03-15T04:27:29;1.10;1.00
24436;DHT22;12616;52.470;13.436;2023-03-15T04:29:57;1.00;1.00
24436;DHT22;12616;52.470;13.436;2023-03-15T04:32:24;1.00;1.00
24436;DHT22;12616;52.470;13.436;2023-03-15T04:34:51;0.80;9.70
24436;DHT22;12616;52.470;13.436;2023-03-15T04:37:20;0.90;1.00
24436;DHT22;12616;52.470;13.436;2023-03-15T04:39:47;1.00;1.00
24436;DHT22;12616;52.470;13.436;2023-03-15T04:42:13;1.00;1.00
24436;DHT22;12616;52.470;13.436;2023-03-15T04:44:40;0.90;1.00
24436;DHT22;12616;52.470;13.436;2023-03-15T04:47:09;1.00;1.00
24436;DHT22;12616;52.470;13.436;2023-03-15T04:49:35;1.00;1.00
24436;DHT22;12616;52.470;13.436;2023-03-15T04:52:02;1.00;1.00
24436;DHT22;12616;52.470;13.436;2023-03-15T04:54:29;0.90;1.00
24436;DHT22;12616;52.470;13.436;2023-03-15T04:56:56;0.90;1.00
24436;DHT22;12616;52.470;13.436;2023-03-15T04:59:23;0.90;1.00
24436;DHT22;12616;52.470;13.436;2023-03-15T05:01:50;0.90;1.00
24436;DHT22;12616;52.470;13.436;2023-03-15T05:04:18;0.90;1.00
24436;DHT22;12616;52.470;13.436;2023-03-15T05:06:46;0.90;1.00
24436;DHT22;12616;52.470;13.436;2023-03-15T05:09:12;1.00;1.00
24436;DHT22;12616;52.470;13.436;2023-03-15T05:11:43;1.00;1.00
24436;DHT22;12616;52.470;13.436;2023-03-15T05:14:10;0.90;1.00
24436;DHT22;12616;52.470;13.436;2023-03-15T05:16:37;1.00;1.00
24436;DHT22;12616;52.470;13.436;2023-03-15T05:19:05;1.00;1.00
24436;DHT22;12616;52.470;13.436;2023-03-15T05:21:33;1.00;1.00
24436;DHT22;12616;52.470;13.436;2023-03-15T05:24:00;1.10;1.00
24436;DHT22;12616;52.470;13.436;2023-03-15T05:26:29;1.10;1.00
24436;DHT22;12616;52.470;13.436;2023-03-15T05:28:56;1.10;1.00
24436;DHT22;12616;52.470;13.436;2023-03-15T05:31:23;1.10;1.00
24436;DHT22;12616;52.470;13.436;2023-03-15T05:33:49;1.10;1.00
24436;DHT22;12616;52.470;13.436;2023-03-15T05:36:18;0.90;1.00
24436;DHT22;12616;52.470;13.436;2023-03-15T05:38:47;1.10;1.00
24436;DHT22;12616;52.470;13.436;2023-03-15T05:41:14;1.10;1.00
24436;DHT22;12616;52.470;13.436;2023-03-15T05:43:42;1.10;1.00
24436;DHT22;12616;52.470;13.436;2023-03-15T05:46:09;1.10;1.00
24436;DHT22;12616;52.470;13.436;2023-03-15T05:48:36;1.20;1.00
24436;DHT22;12616;52.470;13.436;2023-03-15T05:51:03;1.20;1.00
24436;DHT22;12616;52.470;13.436;2023-03-15T05:53:30;1.50;1.00
24436;DHT22;12616;52.470;13.436;2023-03-15T05:55:58;1.40;1.00
24436;DHT22;12616;52.470;13.436;2023-03-15T05:58:28;1.50;1.00
24436;DHT22;12616;52.470;13.436;2023-03-15T06:00:54;1.40;1.00
24436;DHT22;12616;52.470;13.436;2023-03-15T06:03:23;1.50;1.00
24436;DHT22;12616;52.470;13.436;2023-03-15T06:05:49;2.60;1.00
24436;DHT22;12616;52.470;13.436;2023-03-15T06:08:16;1.50;1.00
24436;DHT22;12616;52.470;13.436;2023-03-15T06:10:43;1.40;1.00
24436;DHT22;12616;52.470;13.436;2023-03-15T06:13:11;1.50;1.00
24436;DHT22;12616;52.470;13.436;2023-03-15T06:15:38;1.50;1.00
24436;DHT22;12616;52.470;13.436;2023-03-15T06:18:05;2.10;1.00
24436;DHT22;12616;52.470;13.436;2023-03-15T06:20:32;1.90;1.00
24436;DHT22;12616;52.470;13.436;2023-03-15T06:22:59;1.90;99.90
24436;DHT22;12616;52.470;13.436;2023-03-15T06:25:26;2.00;99.90
24436;DHT22;12616;52.470;13.436;2023-03-15T06:27:53;1.90;99.90
24436;DHT22;12616;52.470;13.436;2023-03-15T06:30:21;1.80;99.90
24436;DHT22;12616;52.470;13.436;2023-03-15T06:32:48;2.00;1.00
24436;DHT22;12616;52.470;13.436;2023-03-15T06:35:15;2.10;99.90
24436;DHT22;12616;52.470;13.436;2023-03-15T06:37:42;1.90;99.90
24436;DHT22;12616;52.470;13.436;2023-03-15T06:40:10;2.00;99.90
24436;DHT22;12616;52.470;13.436;2023-03-15T06:42:38;2.00;1.00
24436;DHT22;12616;52.470;13.436;2023-03-15T06:45:07;2.00;1.00
24436;DHT22;12616;52.470;13.436;2023-03-15T06:47:35;1.90;1.00
24436;DHT22;12616;52.470;13.436;2023-03-15T06:50:03;1.90;1.00
24436;DHT22;12616;52.470;13.436;2023-03-15T06:52:30;2.00;1.00
24436;DHT22;12616;52.470;13.436;2023-03-15T06:54:57;2.00;1.00
24436;DHT22;12616;52.470;13.436;2023-03-15T06:57:24;2.10;1.00
24436;DHT22;12616;52.470;13.436;2023-03-15T06:59:50;2.10;1.00
24436;DHT22;12616;52.470;13.436;2023-03-15T07:02:18;2.10;1.00
24436;DHT22;12616;52.470;13.436;2023-03-15T07:04:47;2.20;1.00
24436;DHT22;12616;52.470;13.436;2023-03-15T07:07:14;2.30;1.00
24436;DHT22;12616;52.470;13.436;2023-03-15T07:09:41;2.40;1.00
24436;DHT22;12616;52.470;13.436;2023-03-15T07:12:09;2.40;1.00
24436;DHT22;12616;52.470;13.436;2023-03-15T07:14:36;2.50;1.00
24436;DHT22;12616;52.470;13.436;2023-03-15T07:17:03;2.60;1.00
24436;DHT22;12616;52.470;13.436;2023-03-15T07:19:30;2.60;1.00
24436;DHT22;12616;52.470;13.436;2023-03-15T07:21:58;2.80;1.00
24436;DHT22;12616;52.470;13.436;2023-03-15T07:24:25;2.80;99.90
24436;DHT22;12616;52.470;13.436;2023-03-15T07:26:53;2.90;99.90
24436;DHT22;12616;52.470;13.436;2023-03-15T07:29:21;2.90;1.00
24436;DHT22;12616;52.470;13.436;2023-03-15T07:31:48;2.80;99.90
24436;DHT22;12616;52.470;13.436;2023-03-15T07:34:14;3.10;1.00
24436;DHT22;12616;52.470;13.436;2023-03-15T07:36:41;2.80;99.90
24436;DHT22;12616;52.470;13.436;2023-03-15T07:39:10;3.00;1.00
24436;DHT22;12616;52.470;13.436;2023-03-15T07:41:36;3.00;99.90
24436;DHT22;12616;52.470;13.436;2023-03-15T07:44:04;3.00;99.90
24436;DHT22;12616;52.470;13.436;2023-03-15T07:46:32;3.00;99.90
24436;DHT22;12616;52.470;13.436;2023-03-15T07:48:58;3.10;99.90
24436;DHT22;12616;52.470;13.436;2023-03-15T07:51:25;3.20;99.90
24436;DHT22;12616;52.470;13.436;2023-03-15T07:53:53;3.00;99.90
24436;DHT22;12616;52.470;13.436;2023-03-15T07:56:23;3.20;93.60
24436;DHT22;12616;52.470;13.436;2023-03-15T07:58:50;3.30;50.50
24436;DHT22;12616;52.470;13.436;2023-03-15T08:01:16;3.50;89.10
24436;DHT22;12616;52.470;13.436;2023-03-15T08:03:43;3.60;1.00
24436;DHT22;12616;52.470;13.436;2023-03-15T08:06:10;3.40;1.00
24436;DHT22;12616;52.470;13.436;2023-03-15T08:08:37;3.20;1.00
24436;DHT22;12616;52.470;13.436;2023-03-15T08:11:04;3.70;99.90
24436;DHT22;12616;52.470;13.436;2023-03-15T08:13:33;3.70;96.50
24436;DHT22;12616;52.470;13.436;2023-03-15T08:16:00;3.70;1.00
24436;DHT22;12616;52.470;13.436;2023-03-15T08:18:27;3.80;1.00
24436;DHT22;12616;52.470;13.436;2023-03-15T08:20:54;4.00;1.00
24436;DHT22;12616;52.470;13.436;2023-03-15T08:23:21;4.60;99.90
24436;DHT22;12616;52.470;13.436;2023-03-15T08:25:48;4.20;99.90
24436;DHT22;12616;52.470;13.436;2023-03-15T08:28:15;4.20;99.90
24436;DHT22;12616;52.470;13.436;2023-03-15T08:30:44;4.00;1.00
24436;DHT22;12616;52.470;13.436;2023-03-15T08:33:11;4.20;99.90
24436;DHT22;12616;52.470;13.436;2023-03-15T08:35:38;4.40;1.00
24436;DHT22;12616;52.470;13.436;2023-03-15T08:38:05;4.40;1.00
24436;DHT22;12616;52.470;13.436;2023-03-15T08:40:34;4.20;1.00
24436;DHT22;12616;52.470;13.436;2023-03-15T08:45:29;4.20;99.90
24436;DHT22;12616;52.470;13.436;2023-03-15T08:47:58;4.20;99.90
24436;DHT22;12616;52.470;13.436;2023-03-15T08:50:25;4.10;1.00
24436;DHT22;12616;52.470;13.436;2023-03-15T08:52:53;4.10;28.80
24436;DHT22;12616;52.470;13.436;2023-03-15T08:55:20;4.20;1.00
24436;DHT22;12616;52.470;13.436;2023-03-15T08:57:47;4.40;99.90
24436;DHT22;12616;52.470;13.436;2023-03-15T09:00:15;4.40;1.00
24436;DHT22;12616;52.470;13.436;2023-03-15T09:02:45;4.20;1.00
24436;DHT22;12616;52.470;13.436;2023-03-15T09:05:15;4.20;99.90
24436;DHT22;12616;52.470;13.436;2023-03-15T09:07:42;4.30;1.00
24436;DHT22;12616;52.470;13.436;2023-03-15T09:10:10;4.30;1.00
24436;DHT22;12616;52.470;13.436;2023-03-15T09:12:39;4.30;1.00
24436;DHT22;12616;52.470;13.436;2023-03-15T09:15:07;4.20;1.00
24436;DHT22;12616;52.470;13.436;2023-03-15T09:17:34;4.40;99.90
24436;DHT22;12616;52.470;13.436;2023-03-15T09:20:02;4.50;1.00
24436;DHT22;12616;52.470;13.436;2023-03-15T09:22:34;4.50;99.90
24436;DHT22;12616;52.470;13.436;2023-03-15T09:25:01;4.60;1.00
24436;DHT22;12616;52.470;13.436;2023-03-15T09:27:29;4.70;99.90
24436;DHT22;12616;52.470;13.436;2023-03-15T09:29:56;4.60;99.90
24436;DHT22;12616;52.470;13.436;2023-03-15T09:32:23;4.80;99.90
24436;DHT22;12616;52.470;13.436;2023-03-15T09:34:50;4.70;99.90
24436;DHT22;12616;52.470;13.436;2023-03-15T09:37:17;4.70;99.90
24436;DHT22;12616;52.470;13.436;2023-03-15T09:39:46;4.90;99.90
24436;DHT22;12616;52.470;13.436;2023-03-15T09:42:19;4.70;93.80
24436;DHT22;12616;52.470;13.436;2023-03-15T09:44:53;4.80;99.90
24436;DHT22;12616;52.470;13.436;2023-03-15T09:47:31;4.80;99.90
24436;DHT22;12616;52.470;13.436;2023-03-15T09:50:11;4.60;99.90
24436;DHT22;12616;52.470;13.436;2023-03-15T09:52:42;4.70;1.00
24436;DHT22;12616;52.470;13.436;2023-03-15T09:55:15;4.40;99.90
24436;DHT22;12616;52.470;13.436;2023-03-15T09:57:45;4.40;99.90
24436;DHT22;12616;52.470;13.436;2023-03-15T10:00:16;4.30;99.90
24436;DHT22;12616;52.470;13.436;2023-03-15T10:02:53;4.30;1.00
24436;DHT22;12616;52.470;13.436;2023-03-15T10:05:25;4.70;99.90
24436;DHT22;12616;52.470;13.436;2023-03-15T10:07:54;4.80;99.90
24436;DHT22;12616;52.470;13.436;2023-03-15T10:10:27;5.20;99.90
24436;DHT22;12616;52.470;13.436;2023-03-15T10:13:04;4.80;99.90
24436;DHT22;12616;52.470;13.436;2023-03-15T10:15:40;4.80;99.90
24436;DHT22;12616;52.470;13.436;2023-03-15T10:18:20;4.90;2.80
24436;DHT22;12616;52.470;13.436;2023-03-15T10:20:56;5.00;50.70
24436;DHT22;12616;52.470;13.436;2023-03-15T10:23:35;5.10;1.00
24436;DHT22;12616;52.470;13.436;2023-03-15T10:26:07;5.30;99.90
24436;DHT22;12616;52.470;13.436;2023-03-15T10:28:37;5.30;1.00
24436;DHT22;12616;52.470;13.436;2023-03-15T10:31:11;5.60;4.40
24436;DHT22;12616;52.470;13.436;2023-03-15T10:33:39;5.30;99.90
24436;DHT22;12616;52.470;13.436;2023-03-15T10:36:14;5.50;1.00
24436;DHT22;12616;52.470;13.436;2023-03-15T10:38:41;5.50;1.00
24436;DHT22;12616;52.470;13.436;2023-03-15T10:41:12;5.20;1.00
24436;DHT22;12616;52.470;13.436;2023-03-15T10:43:40;5.20;99.90
24436;DHT22;12616;52.470;13.436;2023-03-15T10:46:08;5.10;99.90
24436;DHT22;12616;52.470;13.436;2023-03-15T10:48:37;5.10;1.00
24436;DHT22;12616;52.470;13.436;2023-03-15T10:51:06;5.20;1.00
24436;DHT22;12616;52.470;13.436;2023-03-15T10:53:33;5.30;15.60
24436;DHT22;12616;52.470;13.436;2023-03-15T10:56:05;5.10;99.90
24436;DHT22;12616;52.470;13.436;2023-03-15T10:58:41;5.20;1.00
24436;DHT22;12616;52.470;13.436;2023-03-15T11:01:13;5.50;1.00
24436;DHT22;12616;52.470;13.436;2023-03-15T11:04:00;6.30;77.70
24436;DHT22;12616;52.470;13.436;2023-03-15T11:06:27;6.20;1.00
24436;DHT22;12616;52.470;13.436;2023-03-15T11:09:07;6.30;1.00
24436;DHT22;12616;52.470;13.436;2023-03-15T11:11:48;6.20;1.00
24436;DHT22;12616;52.470;13.436;2023-03-15T11:14:18;6.20;1.00
24436;DHT22;12616;52.470;13.436;2023-03-15T11:16:47;5.90;1.00
24436;DHT22;12616;52.470;13.436;2023-03-15T11:19:17;6.20;1.00
24436;DHT22;12616;52.470;13.436;2023-03-15T11:21:47;6.30;99.90
24436;DHT22;12616;52.470;13.436;2023-03-15T11:24:22;6.10;1.00
24436;DHT22;12616;52.470;13.436;2023-03-15T11:26:51;6.10;1.00
24436;DHT22;12616;52.470;13.436;2023-03-15T11:29:23;5.80;1.00
24436;DHT22;12616;52.470;13.436;2023-03-15T11:31:51;5.80;1.00
24436;DHT22;12616;52.470;13.436;2023-03-15T11:34:25;5.80;1.00
24436;DHT22;12616;52.470;13.436;2023-03-15T11:36:57;5.70;1.00
24436;DHT22;12616;52.470;13.436;2023-03-15T11:39:33;5.60;1.00
24436;DHT22;12616;52.470;13.436;2023-03-15T11:42:05;5.30;1.00
24436;DHT22;12616;52.470;13.436;2023-03-15T11:44:38;5.10;1.00
24436;DHT22;12616;52.470;13.436;2023-03-15T11:47:12;5.20;1.00
24436;DHT22;12616;52.470;13.436;2023-03-15T11:49:46;5.50;1.00
24436;DHT22;12616;52.470;13.436;2023-03-15T11:52:15;5.60;1.00
24436;DHT22;12616;52.470;13.436;2023-03-15T11:54:46;5.80;1.00
24436;DHT22;12616;52.470;13.436;2023-03-15T11:57:38;5.90;1.00
24436;DHT22;12616;52.470;13.436;2023-03-15T12:00:19;5.60;1.00
24436;DHT22;12616;52.470;13.436;2023-03-15T12:02:55;5.90;1.00
24436;DHT22;12616;52.470;13.436;2023-03-15T12:05:47;6.50;33.20
24436;DHT22;12616;52.470;13.436;2023-03-15T12:08:22;6.10;1.00
24436;DHT22;12616;52.470;13.436;2023-03-15T12:10:53;6.60;1.00
24436;DHT22;12616;52.470;13.436;2023-03-15T12:13:24;6.40;1.00
24436;DHT22;12616;52.470;13.436;2023-03-15T12:15:54;6.30;1.00
24436;DHT22;12616;52.470;13.436;2023-03-15T12:18:28;6.80;1.00
24436;DHT22;12616;52.470;13.436;2023-03-15T12:21:30;6.70;1.00
24436;DHT22;12616;52.470;13.436;2023-03-15T12:24:03;6.70;1.00
24436;DHT22;12616;52.470;13.436;2023-03-15T12:26:41;6.70;1.00
24436;DHT22;12616;52.470;13.436;2023-03-15T12:29:17;6.80;1.00
24436;DHT22;12616;52.470;13.436;2023-03-15T12:31:56;6.40;1.00
24436;DHT22;12616;52.470;13.436;2023-03-15T12:34:29;6.10;1.00
24436;DHT22;12616;52.470;13.436;2023-03-15T12:37:05;6.10;1.00
24436;DHT22;12616;52.470;13.436;2023-03-15T12:39:39;6.10;1.00
24436;DHT22;12616;52.470;13.436;2023-03-15T12:42:11;6.10;1.00
24436;DHT22;12616;52.470;13.436;2023-03-15T12:44:39;6.10;1.00
24436;DHT22;12616;52.470;13.436;2023-03-15T12:47:09;6.20;1.00
24436;DHT22;12616;52.470;13.436;2023-03-15T12:49:39;6.60;1.00
24436;DHT22;12616;52.470;13.436;2023-03-15T12:52:33;6.90;1.00
24436;DHT22;12616;52.470;13.436;2023-03-15T12:55:12;6.60;1.00
24436;DHT22;12616;52.470;13.436;2023-03-15T12:57:46;6.70;1.00
24436;DHT22;12616;52.470;13.436;2023-03-15T13:00:16;6.60;1.00
24436;DHT22;12616;52.470;13.436;2023-03-15T13:02:49;6.50;1.00
24436;DHT22;12616;52.470;13.436;2023-03-15T13:05:25;6.40;1.00
24436;DHT22;12616;52.470;13.436;2023-03-15T13:08:19;6.50;1.00
24436;DHT22;12616;52.470;13.436;2023-03-15T13:11:08;6.50;1.00
24436;DHT22;12616;52.470;13.436;2023-03-15T13:13:54;6.30;1.00
24436;DHT22;12616;52.470;13.436;2023-03-15T13:16:31;5.90;1.00
24436;DHT22;12616;52.470;13.436;2023-03-15T13:19:16;6.10;1.00
24436;DHT22;12616;52.470;13.436;2023-03-15T13:22:08;6.00;1.00
24436;DHT22;12616;52.470;13.436;2023-03-15T13:24:46;6.10;1.00
24436;DHT22;12616;52.470;13.436;2023-03-15T13:27:25;5.90;1.00
24436;DHT22;12616;52.470;13.436;2023-03-15T13:29:54;6.00;1.00
24436;DHT22;12616;52.470;13.436;2023-03-15T13:32:22;6.20;1.00
24436;DHT22;12616;52.470;13.436;2023-03-15T13:34:50;6.30;1.00
24436;DHT22;12616;52.470;13.436;2023-03-15T13:37:20;6.70;1.00
24436;DHT22;12616;52.470;13.436;2023-03-15T13:39:59;6.90;1.00
24436;DHT22;12616;52.470;13.436;2023-03-15T13:42:37;7.20;1.00
24436;DHT22;12616;52.470;13.436;2023-03-15T13:45:15;7.60;1.00
24436;DHT22;12616;52.470;13.436;2023-03-15T13:47:48;7.50;1.00
24436;DHT22;12616;52.470;13.436;2023-03-15T13:50:20;7.50;1.00
24436;DHT22;12616;52.470;13.436;2023-03-15T13:52:47;7.10;1.00
24436;DHT22;12616;52.470;13.436;2023-03-15T13:55:19;7.20;1.00
24436;DHT22;12616;52.470;13.436;2023-03-15T13:57:48;7.00;1.00
24436;DHT22;12616;52.470;13.436;2023-03-15T14:00:18;7.00;1.00
24436;DHT22;12616;52.470;13.436;2023-03-15T14:02:50;6.80;1.00
24436;DHT22;12616;52.470;13.436;2023-03-15T14:05:24;6.30;1.00
24436;DHT22;12616;52.470;13.436;2023-03-15T14:07:57;5.50;99.90
24436;DHT22;12616;52.470;13.436;2023-03-15T14:10:29;5.60;99.90
24436;DHT22;12616;52.470;13.436;2023-03-15T14:12:57;5.50;99.90
24436;DHT22;12616;52.470;13.436;2023-03-15T14:15:35;5.70;99.90
24436;DHT22;12616;52.470;13.436;2023-03-15T14:18:14;5.90;99.90
24436;DHT22;12616;52.470;13.436;2023-03-15T14:20:45;6.30;99.90
24436;DHT22;12616;52.470;13.436;2023-03-15T14:23:14;6.10;1.00
24436;DHT22;12616;52.470;13.436;2023-03-15T14:25:42;5.90;84.70
24436;DHT22;12616;52.470;13.436;2023-03-15T14:28:11;6.00;1.00
24436;DHT22;12616;52.470;13.436;2023-03-15T14:30:40;6.20;99.90
24436;DHT22;12616;52.470;13.436;2023-03-15T14:33:23;6.20;1.00
24436;DHT22;12616;52.470;13.436;2023-03-15T14:35:56;6.20;1.00
24436;DHT22;12616;52.470;13.436;2023-03-15T14:38:25;6.20;1.00
24436;DHT22;12616;52.470;13.436;2023-03-15T14:41:10;6.10;1.00
24436;DHT22;12616;52.470;13.436;2023-03-15T14:43:42;6.00;1.00
24436;DHT22;12616;52.470;13.436;2023-03-15T14:46:08;6.10;1.00
24436;DHT22;12616;52.470;13.436;2023-03-15T14:48:36;6.00;1.00
24436;DHT22;12616;52.470;13.436;2023-03-15T14:51:04;6.10;1.00
24436;DHT22;12616;52.470;13.436;2023-03-15T14:53:33;6.20;1.00
24436;DHT22;12616;52.470;13.436;2023-03-15T14:56:01;6.70;1.00
24436;DHT22;12616;52.470;13.436;2023-03-15T14:58:28;6.30;1.00
24436;DHT22;12616;52.470;13.436;2023-03-15T15:00:55;6.40;1.00
24436;DHT22;12616;52.470;13.436;2023-03-15T15:03:28;6.40;1.00
24436;DHT22;12616;52.470;13.436;2023-03-15T15:05:56;6.40;1.00
24436;DHT22;12616;52.470;13.436;2023-03-15T15:08:25;6.30;1.00
24436;DHT22;12616;52.470;13.436;2023-03-15T15:10:54;6.30;1.00
24436;DHT22;12616;52.470;13.436;2023-03-15T15:13:23;6.60;1.00
24436;DHT22;12616;52.470;13.436;2023-03-15T15:15:51;6.80;1.00
24436;DHT22;12616;52.470;13.436;2023-03-15T15:18:18;6.50;1.00
24436;DHT22;12616;52.470;13.436;2023-03-15T15:20:45;6.70;1.00
24436;DHT22;12616;52.470;13.436;2023-03-15T15:23:17;6.70;1.00
24436;DHT22;12616;52.470;13.436;2023-03-15T15:25:47;6.70;1.00
24436;DHT22;12616;52.470;13.436;2023-03-15T15:28:15;6.70;1.00
24436;DHT22;12616;52.470;13.436;2023-03-15T15:30:41;6.70;1.00
24436;DHT22;12616;52.470;13.436;2023-03-15T15:33:08;6.80;1.00
24436;DHT22;12616;52.470;13.436;2023-03-15T15:35:36;6.70;1.00
24436;DHT22;12616;52.470;13.436;2023-03-15T15:38:08;6.60;1.00
24436;DHT22;12616;52.470;13.436;2023-03-15T15:40:36;6.50;1.00
24436;DHT22;12616;52.470;13.436;2023-03-15T15:43:09;6.40;1.00
24436;DHT22;12616;52.470;13.436;2023-03-15T15:45:36;6.30;1.00
24436;DHT22;12616;52.470;13.436;2023-03-15T15:48:04;6.20;1.00
24436;DHT22;12616;52.470;13.436;2023-03-15T15:50:32;6.20;1.00
24436;DHT22;12616;52.470;13.436;2023-03-15T15:53:02;6.10;1.00
24436;DHT22;12616;52.470;13.436;2023-03-15T15:55:32;6.20;1.00
24436;DHT22;12616;52.470;13.436;2023-03-15T15:57:59;6.20;1.00